Time;durP1;ratioP1;P1;durP2;ratioP2;P2;SDS_P1;SDS_P2;PMS_P1;PMS_P2;Temp;Humidity;BMP_temperature;BMP_pressure;BME280_temperature;BME280_humidity;BME280_pressure;Samples;Min_cycle;Max_cycle;Signal;HPM_P1;HPM_P2
2023/01/03 00:00:10;;;;;;;13.13;4.45;;;4.80;99.90;;;;;;5093100;28;20406;-74
2023/01/03 00:02:36;;;;;;;9.43;4.30;;;4.80;99.90;;;;;;5091998;28;20765;-74
2023/01/03 00:05:02;;;;;;;10.80;3.97;;;4.80;99.90;;;;;;5092563;28;20413;-74
2023/01/03 00:07:34;;;;;;;9.05;3.90;;;4.80;99.90;;;;;;5089889;28;21013;-74
2023/01/03 00:10:07;;;;;;;8.20;4.20;;;4.80;99.90;;;;;;5092430;28;20830;-74
2023/01/03 00:12:34;;;;;;;10.48;3.90;;;4.70;99.90;;;;;;5092669;28;20775;-74
2023/01/03 00:14:59;;;;;;;9.23;3.63;;;4.70;99.90;;;;;;5090086;28;20909;-74
2023/01/03 00:17:26;;;;;;;6.90;3.90;;;4.70;99.90;;;;;;5089267;28;20522;-74
2023/01/03 00:19:52;;;;;;;7.40;4.05;;;4.70;99.90;;;;;;5089500;28;20402;-74
2023/01/03 00:22:17;;;;;;;11.07;3.97;;;4.70;99.90;;;;;;5095275;28;20412;-74
2023/01/03 00:24:44;;;;;;;8.73;4.05;;;4.70;99.90;;;;;;5071452;28;20413;-74
2023/01/03 00:27:11;;;;;;;8.55;4.15;;;4.70;99.90;;;;;;5089508;28;20453;-74
2023/01/03 00:29:37;;;;;;;9.35;3.75;;;4.70;99.90;;;;;;5088110;28;20398;-74
2023/01/03 00:32:03;;;;;;;11.43;4.13;;;4.70;99.90;;;;;;5087860;28;20806;-74
2023/01/03 00:34:28;;;;;;;8.95;4.18;;;4.60;99.90;;;;;;5091684;28;20453;-74
2023/01/03 00:36:54;;;;;;;8.80;3.60;;;4.60;99.90;;;;;;5096517;28;20439;-74
2023/01/03 00:39:20;;;;;;;9.00;3.42;;;4.60;99.90;;;;;;5087773;28;20406;-74
2023/01/03 00:41:46;;;;;;;11.40;4.25;;;4.50;99.90;;;;;;5097146;28;20400;-74
2023/01/03 00:44:12;;;;;;;11.70;3.80;;;4.50;99.90;;;;;;5092886;28;20481;-74
2023/01/03 00:46:38;;;;;;;7.07;3.40;;;4.50;99.90;;;;;;5095901;28;20408;-74
2023/01/03 00:49:04;;;;;;;8.23;3.70;;;4.40;99.90;;;;;;5093159;28;20523;-74
2023/01/03 00:51:32;;;;;;;12.70;4.07;;;4.40;99.90;;;;;;5096717;28;20401;-74
2023/01/03 00:53:59;;;;;;;10.13;3.17;;;4.40;99.90;;;;;;5070703;28;20398;-74
2023/01/03 00:56:28;;;;;;;10.10;3.33;;;4.30;99.90;;;;;;5093539;28;20907;-74
2023/01/03 00:58:54;;;;;;;8.77;3.42;;;4.30;99.90;;;;;;5091941;28;20491;-74
2023/01/03 01:01:32;;;;;;;8.88;3.47;;;4.30;99.90;;;;;;5077810;28;20524;-74
2023/01/03 01:04:03;;;;;;;8.52;3.50;;;4.30;99.90;;;;;;5091070;28;20791;-74
2023/01/03 01:06:33;;;;;;;7.10;2.90;;;4.30;99.90;;;;;;5088548;28;20420;-74
2023/01/03 01:09:00;;;;;;;8.48;2.53;;;4.20;99.90;;;;;;5087331;28;20455;-74
2023/01/03 01:11:27;;;;;;;7.68;2.58;;;4.20;99.90;;;;;;5077784;28;20427;-74
2023/01/03 01:13:54;;;;;;;6.38;2.03;;;4.20;99.90;;;;;;5090740;28;20399;-74
2023/01/03 01:16:28;;;;;;;5.68;1.95;;;4.20;99.90;;;;;;5088525;28;20655;-74
2023/01/03 01:18:54;;;;;;;6.60;2.10;;;4.20;99.90;;;;;;5091063;28;20449;-74
2023/01/03 01:21:23;;;;;;;6.70;2.10;;;4.30;99.90;;;;;;5090747;28;20409;-74
2023/01/03 01:23:50;;;;;;;9.02;1.65;;;4.30;99.90;;;;;;5093859;28;20912;-74
2023/01/03 01:26:18;;;;;;;8.20;1.77;;;4.30;99.90;;;;;;5089955;28;20967;-74
2023/01/03 01:28:44;;;;;;;7.13;1.60;;;4.40;99.90;;;;;;5093782;28;20929;-74
2023/01/03 01:31:14;;;;;;;6.13;1.40;;;4.40;99.90;;;;;;5079298;28;20986;-74
2023/01/03 01:33:40;;;;;;;5.32;1.58;;;4.40;99.90;;;;;;5089196;28;20490;-75
2023/01/03 01:36:17;;;;;;;5.57;1.38;;;4.50;99.90;;;;;;5094851;28;20477;-74
2023/01/03 01:38:43;;;;;;;6.25;1.10;;;4.60;99.90;;;;;;5087744;28;20426;-74
2023/01/03 01:44:36;;;;;;;4.93;0.97;;;4.60;99.90;;;;;;5098203;28;20513;-74
2023/01/03 01:46:45;;;;;;;5.70;0.85;;;4.70;99.90;;;;;;5101420;28;20404;-74
2023/01/03 01:49:17;;;;;;;4.70;0.70;;;4.70;99.90;;;;;;5094213;28;20403;-74
2023/01/03 01:51:43;;;;;;;5.65;0.73;;;4.70;99.90;;;;;;5103836;28;20763;-74
2023/01/03 01:54:10;;;;;;;6.32;1.30;;;4.70;99.90;;;;;;5105572;28;20396;-74
2023/01/03 01:56:43;;;;;;;5.65;1.13;;;4.70;99.90;;;;;;5102142;28;20418;-74
2023/01/03 01:59:10;;;;;;;5.63;1.00;;;4.70;99.90;;;;;;5095243;28;20417;-74
2023/01/03 02:01:37;;;;;;;7.47;1.00;;;4.70;99.90;;;;;;5100988;28;20418;-74
2023/01/03 02:04:05;;;;;;;6.60;1.00;;;4.70;99.90;;;;;;5087924;28;20400;-74
2023/01/03 02:06:32;;;;;;;7.60;1.33;;;4.70;99.90;;;;;;5087347;28;20438;-74
2023/01/03 02:08:58;;;;;;;7.57;1.30;;;4.70;99.90;;;;;;5101518;28;20418;-74
2023/01/03 02:11:27;;;;;;;7.97;1.20;;;4.70;99.90;;;;;;5104717;28;20407;-74
2023/01/03 02:14:31;;;;;;;5.90;1.10;;;4.70;99.90;;;;;;5090842;28;20414;-74
2023/01/03 02:17:31;;;;;;;4.28;0.90;;;4.70;99.90;;;;;;4990982;28;20542;-74
2023/01/03 02:20:15;;;;;;;4.95;0.95;;;4.70;99.90;;;;;;4992685;28;20981;-74
2023/01/03 02:23:18;;;;;;;4.75;1.20;;;4.80;99.90;;;;;;5068113;28;20416;-74
2023/01/03 02:26:09;;;;;;;5.72;1.25;;;4.80;99.90;;;;;;5080517;28;20468;-74
2023/01/03 02:28:43;;;;;;;7.45;1.40;;;4.80;99.90;;;;;;5090744;28;20433;-74
2023/01/03 02:31:24;;;;;;;6.93;1.50;;;4.80;99.90;;;;;;5090900;28;20410;-74
2023/01/03 02:34:02;;;;;;;6.53;1.90;;;4.80;99.90;;;;;;5080368;28;20418;-74
2023/01/03 02:36:46;;;;;;;7.10;1.60;;;4.80;99.90;;;;;;5092333;28;20446;-74
2023/01/03 02:39:27;;;;;;;8.88;1.85;;;4.80;99.90;;;;;;5101559;28;20485;-74
2023/01/03 02:45:15;;;;;;;6.68;2.05;;;4.70;99.90;;;;;;5090530;28;20471;-74
2023/01/03 02:48:01;;;;;;;7.35;1.92;;;4.80;99.90;;;;;;5070072;28;20418;-74
2023/01/03 02:50:33;;;;;;;7.50;2.30;;;4.80;99.90;;;;;;5090755;28;20416;-74
2023/01/03 02:53:04;;;;;;;7.32;2.50;;;4.80;99.90;;;;;;5091750;28;20768;-74
2023/01/03 02:55:32;;;;;;;8.10;2.60;;;4.80;99.90;;;;;;5090859;28;20481;-74
2023/01/03 02:58:15;;;;;;;8.43;2.23;;;4.70;99.90;;;;;;5091663;28;20990;-74
2023/01/03 03:00:47;;;;;;;5.73;2.40;;;4.80;99.90;;;;;;5092178;28;20924;-74
2023/01/03 03:03:18;;;;;;;9.10;2.40;;;4.80;99.90;;;;;;5090370;28;20443;-74
2023/01/03 03:05:58;;;;;;;7.85;2.60;;;4.80;99.90;;;;;;5093055;28;20399;-74
2023/01/03 03:08:24;;;;;;;8.93;3.10;;;4.80;99.90;;;;;;5090902;28;20417;-74
2023/01/03 03:13:35;;;;;;;7.50;3.00;;;4.80;99.90;;;;;;5090649;28;20417;-74
2023/01/03 03:25:46;;;;;;;7.40;3.08;;;4.60;99.90;;;;;;5090898;28;20410;-74
2023/01/03 03:28:34;;;;;;;10.45;3.10;;;4.50;99.90;;;;;;5090827;28;20949;-74
2023/01/03 03:31:18;;;;;;;9.70;3.40;;;4.50;99.90;;;;;;5092185;28;20394;-74
2023/01/03 03:34:26;;;;;;;8.00;3.30;;;4.30;99.90;;;;;;5090982;28;20417;-74
2023/01/03 03:37:18;;;;;;;9.48;3.42;;;4.20;99.90;;;;;;5091343;28;20413;-74
2023/01/03 03:45:34;;;;;;;9.05;3.38;;;4.10;99.90;;;;;;5096335;28;20442;-74
2023/01/03 03:48:14;;;;;;;9.10;3.10;;;4.00;99.90;;;;;;5104055;28;20419;-74
2023/01/03 03:51:15;;;;;;;7.83;3.30;;;3.90;99.90;;;;;;5106610;28;20475;-74
2023/01/03 03:53:42;;;;;;;9.95;3.42;;;3.90;99.90;;;;;;5029820;28;20416;-74
2023/01/03 03:56:14;;;;;;;9.45;3.47;;;3.90;99.90;;;;;;5103894;28;20405;-75
2023/01/03 03:58:42;;;;;;;7.35;3.30;;;3.80;99.90;;;;;;5106297;28;20428;-75
2023/01/03 04:01:10;;;;;;;7.67;3.63;;;3.80;99.90;;;;;;5094959;28;20758;-75
2023/01/03 04:03:38;;;;;;;7.65;3.15;;;3.70;99.90;;;;;;5089085;28;20501;-75
2023/01/03 04:06:16;;;;;;;7.90;3.00;;;3.70;99.90;;;;;;5106543;28;20800;-74
2023/01/03 04:08:42;;;;;;;7.68;2.95;;;3.60;99.90;;;;;;5087863;28;20493;-74
2023/01/03 04:11:07;;;;;;;8.33;3.03;;;3.60;99.90;;;;;;5107711;28;20430;-74
2023/01/03 04:13:35;;;;;;;10.87;3.27;;;3.60;99.90;;;;;;5105206;28;20413;-74
2023/01/03 04:16:02;;;;;;;7.70;2.83;;;3.50;99.90;;;;;;5099201;28;20448;-74
2023/01/03 04:18:27;;;;;;;5.70;2.97;;;3.50;99.90;;;;;;5100509;28;20430;-74
2023/01/03 04:20:53;;;;;;;8.93;3.27;;;3.40;99.90;;;;;;5107077;28;20404;-74
2023/01/03 04:23:19;;;;;;;7.78;3.40;;;3.40;99.90;;;;;;5093998;28;20400;-74
2023/01/03 04:25:47;;;;;;;8.40;3.72;;;3.40;99.90;;;;;;5108094;28;20493;-74
2023/01/03 04:28:13;;;;;;;8.98;2.90;;;3.30;99.90;;;;;;5105994;28;20435;-74
2023/01/03 04:30:39;;;;;;;11.85;3.38;;;3.30;99.90;;;;;;5107927;28;20813;-74
2023/01/03 04:33:05;;;;;;;10.40;3.47;;;3.20;99.90;;;;;;5106522;28;20417;-74
2023/01/03 04:35:31;;;;;;;7.82;3.20;;;3.20;99.90;;;;;;5107238;28;20408;-74
2023/01/03 04:37:57;;;;;;;9.48;3.30;;;3.20;99.90;;;;;;5105232;28;20452;-74
2023/01/03 04:40:23;;;;;;;7.38;3.03;;;3.20;99.90;;;;;;5088261;28;20437;-74
2023/01/03 04:45:33;;;;;;;8.57;3.60;;;3.10;99.90;;;;;;5089227;28;20406;-74
2023/01/03 04:47:59;;;;;;;9.25;3.72;;;3.10;99.90;;;;;;5089108;28;20428;-74
2023/01/03 04:50:25;;;;;;;9.98;3.60;;;3.10;99.90;;;;;;5087825;28;20441;-74
2023/01/03 04:52:51;;;;;;;8.85;3.60;;;3.00;99.90;;;;;;5088897;28;20398;-74
2023/01/03 04:55:16;;;;;;;8.60;3.60;;;3.00;99.90;;;;;;5089086;28;20461;-74
2023/01/03 04:57:42;;;;;;;9.60;3.75;;;3.00;99.90;;;;;;5088951;28;20536;-74
2023/01/03 05:00:08;;;;;;;7.77;3.70;;;3.00;99.90;;;;;;5088860;28;20386;-74
2023/01/03 05:02:34;;;;;;;8.45;4.00;;;3.00;99.90;;;;;;5088834;28;20406;-74
2023/01/03 05:04:59;;;;;;;9.43;4.10;;;2.90;99.90;;;;;;5087878;28;20788;-74
2023/01/03 05:07:29;;;;;;;9.73;4.50;;;3.00;99.90;;;;;;5088200;28;20842;-74
2023/01/03 05:09:55;;;;;;;11.23;4.75;;;2.90;99.90;;;;;;5098245;28;20408;-74
2023/01/03 05:12:20;;;;;;;11.10;4.63;;;3.00;99.90;;;;;;5091605;28;20407;-74
2023/01/03 05:14:46;;;;;;;11.82;5.22;;;3.00;99.90;;;;;;5096032;28;20412;-74
2023/01/03 05:17:11;;;;;;;12.43;5.03;;;3.00;99.90;;;;;;5086870;28;21037;-74
2023/01/03 05:25:48;;;;;;;12.63;5.70;;;3.00;99.90;;;;;;5087700;28;20401;-74
2023/01/03 05:27:54;;;;;;;13.50;6.28;;;3.10;99.90;;;;;;5087370;28;20422;-74
2023/01/03 05:30:19;;;;;;;12.38;6.43;;;3.20;99.90;;;;;;5103184;28;20413;-74
2023/01/03 05:32:45;;;;;;;15.07;7.28;;;3.20;99.90;;;;;;5099064;28;20400;-75
2023/01/03 05:35:10;;;;;;;13.70;7.13;;;3.20;99.90;;;;;;5104887;28;20785;-75
2023/01/03 05:37:36;;;;;;;14.80;7.40;;;3.20;99.90;;;;;;5106143;28;20432;-75
2023/01/03 05:40:02;;;;;;;13.70;7.72;;;3.30;99.90;;;;;;5094716;28;20400;-75
2023/01/03 05:42:27;;;;;;;18.27;8.30;;;3.30;99.90;;;;;;5104176;28;20544;-74
2023/01/03 05:44:53;;;;;;;17.15;8.30;;;3.30;99.90;;;;;;5103475;28;20404;-74
2023/01/03 05:47:19;;;;;;;19.00;8.93;;;3.40;99.90;;;;;;5105695;28;20729;-74
2023/01/03 05:49:45;;;;;;;17.97;8.43;;;3.40;99.90;;;;;;5103309;28;20425;-74
2023/01/03 05:52:10;;;;;;;18.33;9.40;;;3.40;99.90;;;;;;5103790;28;20404;-74
2023/01/03 05:54:36;;;;;;;17.95;9.38;;;3.40;99.90;;;;;;5102360;28;20407;-74
2023/01/03 05:57:01;;;;;;;15.83;9.33;;;3.50;99.90;;;;;;5105839;28;20887;-75
2023/01/03 05:59:27;;;;;;;22.00;9.45;;;3.50;99.90;;;;;;5091384;28;20415;-75
2023/01/03 06:01:53;;;;;;;19.13;9.73;;;3.50;99.90;;;;;;5105841;28;20388;-74
2023/01/03 06:04:18;;;;;;;20.90;9.57;;;3.50;99.90;;;;;;5086313;28;20426;-74
2023/01/03 06:06:44;;;;;;;19.05;10.23;;;3.60;99.90;;;;;;5095251;28;20398;-74
2023/01/03 06:09:10;;;;;;;20.00;10.37;;;3.60;99.90;;;;;;5099348;28;20394;-74
2023/01/03 06:11:36;;;;;;;17.80;9.80;;;3.60;99.90;;;;;;5087819;28;20410;-74
2023/01/03 06:14:01;;;;;;;21.33;10.13;;;3.60;99.90;;;;;;5085318;28;20407;-74
2023/01/03 06:19:11;;;;;;;18.90;10.40;;;3.70;99.90;;;;;;5094028;28;20485;-74
2023/01/03 06:21:37;;;;;;;18.97;10.30;;;3.70;99.90;;;;;;5091964;28;20790;-74
2023/01/03 06:24:04;;;;;;;19.10;10.50;;;3.70;99.90;;;;;;5099255;28;20402;-74
2023/01/03 06:26:30;;;;;;;19.30;10.60;;;3.80;99.90;;;;;;5098128;28;20397;-75
2023/01/03 06:28:56;;;;;;;17.43;10.33;;;3.80;99.90;;;;;;5105108;28;20399;-75
2023/01/03 06:31:21;;;;;;;20.80;10.95;;;3.80;99.90;;;;;;5100843;28;20484;-74
2023/01/03 06:33:47;;;;;;;18.27;10.73;;;3.80;99.90;;;;;;5092313;28;20453;-74
2023/01/03 06:36:16;;;;;;;20.52;11.05;;;3.80;99.90;;;;;;5102852;28;20489;-74
2023/01/03 06:38:41;;;;;;;18.95;10.80;;;3.90;99.90;;;;;;5077140;28;20430;-74
2023/01/03 06:41:07;;;;;;;20.43;10.90;;;3.90;99.90;;;;;;5098540;28;20755;-74
2023/01/03 06:43:33;;;;;;;21.33;11.23;;;3.90;99.90;;;;;;5087490;28;20988;-74
2023/01/03 06:54:26;;;;;;;20.38;11.65;;;4.00;99.90;;;;;;5084972;28;20892;-73
2023/01/03 06:56:52;;;;;;;20.77;12.35;;;3.90;99.90;;;;;;5087558;28;20895;-73
2023/01/03 06:59:19;;;;;;;23.70;12.38;;;4.00;99.90;;;;;;5085377;28;20515;-74
2023/01/03 07:01:46;;;;;;;23.58;12.60;;;4.00;99.90;;;;;;5082951;28;20505;-74
2023/01/03 07:04:12;;;;;;;23.40;12.82;;;4.00;99.90;;;;;;5088639;28;20404;-74
2023/01/03 07:06:38;;;;;;;21.25;12.75;;;4.00;99.90;;;;;;5090206;28;20854;-74
2023/01/03 07:09:04;;;;;;;24.17;13.65;;;3.90;99.90;;;;;;5090631;28;20514;-75
2023/01/03 07:11:29;;;;;;;24.15;13.18;;;3.90;99.90;;;;;;5091249;28;20498;-75
2023/01/03 07:13:58;;;;;;;23.30;12.83;;;3.90;99.90;;;;;;5072727;28;20402;-75
2023/01/03 07:16:31;;;;;;;27.60;13.80;;;3.80;99.90;;;;;;5091015;28;21089;-75
2023/01/03 07:18:58;;;;;;;24.02;13.68;;;3.80;99.90;;;;;;5073065;28;20429;-75
2023/01/03 07:21:25;;;;;;;26.60;14.70;;;3.70;99.90;;;;;;5091017;28;20427;-75
2023/01/03 07:23:55;;;;;;;25.85;14.05;;;3.70;99.90;;;;;;5089894;28;20467;-75
2023/01/03 07:26:23;;;;;;;25.75;14.55;;;3.60;99.90;;;;;;5089264;28;20420;-75
2023/01/03 07:28:49;;;;;;;26.80;14.67;;;3.60;99.90;;;;;;5089319;28;20733;-75
2023/01/03 07:31:14;;;;;;;27.35;15.20;;;3.60;99.90;;;;;;5091797;28;20489;-75
2023/01/03 07:33:40;;;;;;;28.20;14.90;;;3.60;99.90;;;;;;5090564;28;20434;-74
2023/01/03 07:36:08;;;;;;;30.35;16.10;;;3.60;99.90;;;;;;5091006;28;20417;-75
2023/01/03 07:38:35;;;;;;;29.33;16.33;;;3.50;99.90;;;;;;5096387;28;20443;-75
2023/01/03 07:41:02;;;;;;;30.33;16.38;;;3.50;99.90;;;;;;5107040;28;20453;-75
2023/01/03 07:43:36;;;;;;;29.35;16.65;;;3.50;99.90;;;;;;5095583;28;20424;-75
2023/01/03 07:46:18;;;;;;;33.42;16.92;;;3.40;99.90;;;;;;5092165;28;20437;-75
2023/01/03 07:48:45;;;;;;;30.90;16.60;;;3.30;99.90;;;;;;5090147;28;21173;-75
2023/01/03 07:51:13;;;;;;;30.10;16.70;;;3.30;99.90;;;;;;5089985;28;20402;-75
2023/01/03 07:53:39;;;;;;;35.83;17.42;;;3.30;99.90;;;;;;5090247;28;20448;-75
2023/01/03 07:56:09;;;;;;;34.20;17.88;;;3.30;99.90;;;;;;5089033;28;20493;-75
2023/01/03 07:58:35;;;;;;;33.07;17.10;;;3.20;99.90;;;;;;5088770;28;20487;-75
2023/01/03 08:01:09;;;;;;;35.17;18.47;;;3.20;99.90;;;;;;5088566;28;20760;-75
2023/01/03 08:03:35;;;;;;;32.63;16.50;;;3.20;99.90;;;;;;5089732;28;20927;-75
2023/01/03 08:06:03;;;;;;;31.50;16.02;;;3.20;99.90;;;;;;5088753;28;20907;-75
2023/01/03 08:08:29;;;;;;;34.88;16.77;;;3.20;99.90;;;;;;5089719;28;20410;-75
2023/01/03 08:13:40;;;;;;;33.28;16.88;;;3.10;99.90;;;;;;5086754;28;20459;-75
2023/01/03 08:16:09;;;;;;;30.98;16.70;;;3.10;99.90;;;;;;5087430;28;20451;-75
2023/01/03 08:18:35;;;;;;;30.25;16.20;;;3.10;99.90;;;;;;5088738;28;20480;-75
2023/01/03 08:21:01;;;;;;;30.35;15.80;;;3.10;99.90;;;;;;5088948;28;20406;-75
2023/01/03 08:23:28;;;;;;;31.17;16.50;;;3.00;99.90;;;;;;5089050;28;20989;-75
2023/01/03 08:26:00;;;;;;;32.30;16.52;;;3.00;99.90;;;;;;5088253;28;20813;-75
2023/01/03 08:28:25;;;;;;;27.55;16.02;;;3.00;99.90;;;;;;5091946;28;20402;-75
2023/01/03 08:30:51;;;;;;;30.27;15.65;;;3.00;99.90;;;;;;5089296;28;20402;-75
2023/01/03 08:33:18;;;;;;;34.03;16.92;;;3.00;99.90;;;;;;5088889;28;20398;-75
2023/01/03 08:35:49;;;;;;;30.25;16.58;;;3.00;99.90;;;;;;5088310;28;20401;-75
2023/01/03 08:38:19;;;;;;;31.73;17.15;;;3.00;99.90;;;;;;5090832;28;20429;-75
2023/01/03 08:40:46;;;;;;;31.65;16.70;;;3.00;99.90;;;;;;5088148;28;20397;-75
2023/01/03 08:43:14;;;;;;;30.70;16.03;;;3.00;99.90;;;;;;5088019;28;20460;-75
2023/01/03 08:45:40;;;;;;;32.77;16.63;;;3.00;99.90;;;;;;5088082;28;20398;-75
2023/01/03 08:48:09;;;;;;;31.93;16.60;;;3.00;99.90;;;;;;5092935;28;20397;-75
2023/01/03 08:50:35;;;;;;;30.35;16.48;;;3.00;99.90;;;;;;5093969;28;20446;-75
2023/01/03 08:53:01;;;;;;;26.40;15.07;;;3.10;99.90;;;;;;5088341;28;20430;-75
2023/01/03 08:55:26;;;;;;;26.87;15.27;;;3.10;99.90;;;;;;5088799;28;20455;-75
2023/01/03 08:57:52;;;;;;;27.83;15.43;;;3.10;99.90;;;;;;5093796;28;20431;-75
2023/01/03 09:00:18;;;;;;;25.20;15.57;;;3.10;99.90;;;;;;5105926;28;20956;-75
2023/01/03 09:02:43;;;;;;;28.17;15.93;;;3.10;99.90;;;;;;5069894;28;20824;-75
2023/01/03 09:05:09;;;;;;;25.40;15.45;;;3.10;99.90;;;;;;5089307;28;20764;-75
2023/01/03 09:07:35;;;;;;;25.20;15.20;;;3.10;99.90;;;;;;5087545;28;20426;-75
2023/01/03 09:10:00;;;;;;;26.30;14.60;;;3.10;99.90;;;;;;5088869;28;20501;-75
2023/01/03 09:12:26;;;;;;;27.42;14.73;;;3.20;99.90;;;;;;5087027;28;20500;-75
2023/01/03 09:14:52;;;;;;;25.17;14.33;;;3.20;99.90;;;;;;5087565;28;20744;-75
2023/01/03 09:17:18;;;;;;;25.97;15.03;;;3.20;99.90;;;;;;5087948;28;20398;-75
2023/01/03 09:19:43;;;;;;;28.73;15.50;;;3.20;99.90;;;;;;5087199;28;20409;-75
2023/01/03 09:22:09;;;;;;;23.00;14.30;;;3.20;99.90;;;;;;5070233;28;20398;-75
2023/01/03 09:24:35;;;;;;;24.60;14.57;;;3.20;99.90;;;;;;5089130;28;20409;-75
2023/01/03 09:27:01;;;;;;;26.00;15.27;;;3.20;99.90;;;;;;5087591;28;20797;-75
2023/01/03 09:29:27;;;;;;;23.40;14.30;;;3.20;99.90;;;;;;5088010;28;20421;-75
2023/01/03 09:31:52;;;;;;;26.50;14.75;;;3.20;99.90;;;;;;5088263;28;20483;-75
2023/01/03 09:34:18;;;;;;;24.13;14.60;;;3.30;99.90;;;;;;5070199;28;20891;-75
2023/01/03 09:36:44;;;;;;;24.58;15.30;;;3.30;99.90;;;;;;5087166;28;20406;-75
2023/01/03 09:39:09;;;;;;;26.40;16.08;;;3.30;99.90;;;;;;5088805;28;20425;-75
2023/01/03 09:41:38;;;;;;;25.20;16.57;;;3.40;99.90;;;;;;5103540;28;20392;-75
2023/01/03 09:44:06;;;;;;;30.40;17.50;;;3.40;99.90;;;;;;5105001;28;20479;-75
2023/01/03 09:46:34;;;;;;;29.08;18.10;;;3.50;99.90;;;;;;5101655;28;20998;-75
2023/01/03 09:49:00;;;;;;;29.92;18.58;;;3.50;99.90;;;;;;5104898;28;20400;-75
2023/01/03 10:03:59;;;;;;;25.33;15.95;;;3.60;99.90;;;;;;5106147;28;20407;-75
2023/01/03 10:06:38;;;;;;;28.27;16.33;;;3.60;99.90;;;;;;5070348;28;20413;-75
2023/01/03 10:09:37;;;;;;;40.53;14.45;;;3.50;99.90;;;;;;5083745;28;20904;-75
2023/01/03 10:12:30;;;;;;;54.55;14.10;;;3.30;99.90;;;;;;5087314;28;21475;-75
2023/01/03 10:15:04;;;;;;;48.67;13.40;;;3.20;99.90;;;;;;5070057;28;20417;-75
2023/01/03 10:17:48;;;;;;;38.97;14.10;;;3.00;99.90;;;;;;5086091;28;20520;-75
2023/01/03 10:20:17;;;;;;;54.13;14.80;;;3.00;99.90;;;;;;5086271;28;20410;-75
2023/01/03 10:22:44;;;;;;;66.00;15.30;;;3.00;99.90;;;;;;5069158;28;20406;-75
2023/01/03 10:25:16;;;;;;;55.70;15.40;;;2.90;99.90;;;;;;5086427;28;20954;-75
2023/01/03 10:27:53;;;;;;;35.20;14.07;;;2.90;99.90;;;;;;5086591;28;20410;-75
2023/01/03 10:30:29;;;;;;;33.60;15.25;;;2.90;99.90;;;;;;5087454;28;20406;-75
2023/01/03 10:33:27;;;;;;;51.72;15.85;;;2.90;99.90;;;;;;5100720;28;20404;-75
2023/01/03 10:35:53;;;;;;;59.55;17.20;;;3.00;99.90;;;;;;5077813;28;20607;-75
2023/01/03 10:38:21;;;;;;;50.10;16.85;;;3.00;99.90;;;;;;5092146;28;20648;-75
2023/01/03 10:40:50;;;;;;;65.18;18.00;;;3.00;99.90;;;;;;5108941;28;20758;-75
2023/01/03 10:43:38;;;;;;;84.30;20.30;;;2.90;99.90;;;;;;5104589;28;20750;-75
2023/01/03 10:46:20;;;;;;;61.38;17.88;;;3.00;99.90;;;;;;5107650;28;20410;-75
2023/01/03 10:48:48;;;;;;;66.83;19.00;;;3.00;99.90;;;;;;5099753;28;20748;-75
2023/01/03 10:51:26;;;;;;;60.35;18.45;;;3.10;99.90;;;;;;5094049;28;20396;-75
2023/01/03 10:53:54;;;;;;;60.08;20.23;;;3.10;99.90;;;;;;5109256;28;20412;-75
2023/01/03 10:56:22;;;;;;;51.87;19.87;;;3.10;99.90;;;;;;5097108;28;20396;-75
2023/01/03 10:59:08;;;;;;;56.83;19.38;;;3.20;99.90;;;;;;5096997;28;20786;-75
2023/01/03 11:01:34;;;;;;;70.77;21.90;;;3.30;99.90;;;;;;5087431;28;20476;-75
2023/01/03 11:04:17;;;;;;;71.33;22.00;;;3.40;99.90;;;;;;5091497;28;20843;-75
2023/01/03 11:06:57;;;;;;;62.50;22.05;;;3.40;99.90;;;;;;5092698;28;20408;-75
2023/01/03 11:09:32;;;;;;;66.90;23.52;;;3.50;99.90;;;;;;5088782;28;20493;-75
2023/01/03 11:12:37;;;;;;;80.20;24.80;;;3.60;99.90;;;;;;5089613;28;20417;-75
2023/01/03 11:15:19;;;;;;;93.00;26.58;;;3.70;99.90;;;;;;5039790;28;20413;-75
2023/01/03 11:17:54;;;;;;;86.10;27.27;;;3.70;99.90;;;;;;5061007;28;20436;-75
2023/01/03 11:20:21;;;;;;;83.28;26.92;;;3.80;99.90;;;;;;5089594;28;20432;-75
2023/01/03 11:22:58;;;;;;;89.07;26.95;;;3.90;99.90;;;;;;5090009;28;20480;-75
2023/01/03 11:25:38;;;;;;;99.80;28.88;;;3.90;99.90;;;;;;5088684;28;20458;-75
2023/01/03 11:28:14;;;;;;;95.40;28.73;;;4.00;99.90;;;;;;5088902;28;20829;-75
2023/01/03 11:30:53;;;;;;;101.93;30.23;;;4.00;99.90;;;;;;5087470;28;20417;-75
2023/01/03 11:33:21;;;;;;;103.57;30.45;;;4.10;99.90;;;;;;5088893;28;20798;-75
2023/01/03 11:36:12;;;;;;;104.70;31.93;;;4.20;99.90;;;;;;5089122;28;20406;-75
2023/01/03 11:38:59;;;;;;;96.50;32.30;;;4.20;99.90;;;;;;5088217;28;20426;-75
2023/01/03 11:41:43;;;;;;;97.32;30.65;;;4.30;99.90;;;;;;5088294;28;20420;-75
2023/01/03 11:44:31;;;;;;;97.78;31.73;;;4.40;99.90;;;;;;5088592;28;20413;-75
2023/01/03 11:47:21;;;;;;;95.57;32.40;;;4.40;99.90;;;;;;5079449;28;20418;-75
2023/01/03 11:49:55;;;;;;;89.90;31.65;;;4.50;99.90;;;;;;5085862;28;20496;-75
2023/01/03 11:52:27;;;;;;;92.55;33.00;;;4.60;99.90;;;;;;5089630;28;20417;-75
2023/01/03 11:55:24;;;;;;;97.50;33.08;;;4.60;99.90;;;;;;5077948;28;20406;-75
2023/01/03 11:58:22;;;;;;;93.18;32.72;;;4.70;99.90;;;;;;5101910;27;20643;-75
2023/01/03 12:01:20;;;;;;;92.10;32.97;;;4.80;99.90;;;;;;5086305;28;20421;-75
2023/01/03 12:03:54;;;;;;;81.65;31.88;;;5.00;99.90;;;;;;5089172;28;20414;-75
2023/01/03 12:06:30;;;;;;;73.30;31.58;;;5.20;99.90;;;;;;5077952;28;20425;-75
2023/01/03 12:09:13;;;;;;;76.15;31.88;;;5.30;99.90;;;;;;5088420;28;20441;-75
2023/01/03 12:12:08;;;;;;;73.87;31.13;;;5.50;99.90;;;;;;5088672;28;20826;-75
2023/01/03 12:14:43;;;;;;;69.72;30.08;;;5.50;99.90;;;;;;5058897;28;21155;-75
2023/01/03 12:17:34;;;;;;;65.78;30.45;;;5.50;99.90;;;;;;5085787;28;20420;-76
2023/01/03 12:20:22;;;;;;;68.03;30.13;;;5.50;99.90;;;;;;5088395;28;20406;-75
2023/01/03 12:23:27;;;;;;;66.25;29.33;;;5.50;99.90;;;;;;5079271;28;20414;-76
2023/01/03 12:25:59;;;;;;;66.32;29.35;;;5.50;99.90;;;;;;5075542;28;20425;-75
2023/01/03 12:28:37;;;;;;;69.57;29.90;;;5.50;99.90;;;;;;5085623;28;20413;-75
2023/01/03 12:31:31;;;;;;;67.63;30.50;;;5.40;99.90;;;;;;5087968;28;20493;-75
2023/01/03 12:34:15;;;;;;;69.85;29.48;;;5.40;99.90;;;;;;5077974;28;20418;-75
2023/01/03 12:37:27;;;;;;;70.05;29.85;;;5.40;99.90;;;;;;5090044;28;20428;-75
2023/01/03 12:40:04;;;;;;;67.13;29.98;;;5.50;99.90;;;;;;5034325;28;20404;-75
2023/01/03 12:42:29;;;;;;;69.97;30.50;;;5.50;99.90;;;;;;5093863;28;20414;-75
2023/01/03 12:45:18;;;;;;;73.75;31.70;;;5.50;99.90;;;;;;5088452;28;20403;-75
2023/01/03 12:47:46;;;;;;;74.28;32.05;;;5.60;99.90;;;;;;5087456;28;20444;-75
2023/01/03 12:50:46;;;;;;;74.63;31.73;;;5.60;99.90;;;;;;5088985;28;20407;-75
2023/01/03 12:53:24;;;;;;;72.63;32.60;;;5.60;99.90;;;;;;5092061;27;20412;-75
2023/01/03 12:56:16;;;;;;;74.65;32.00;;;5.60;99.90;;;;;;5101754;28;20418;-75
2023/01/03 12:58:59;;;;;;;72.15;32.75;;;5.70;99.90;;;;;;5056792;28;20555;-75
2023/01/03 13:01:35;;;;;;;68.28;31.15;;;5.70;99.90;;;;;;5083713;28;21179;-75
2023/01/03 13:04:20;;;;;;;73.30;32.00;;;5.70;99.90;;;;;;5102972;28;20795;-75
2023/01/03 13:06:49;;;;;;;70.00;31.23;;;5.70;99.90;;;;;;5106592;28;20431;-75
2023/01/03 13:09:17;;;;;;;70.55;30.85;;;5.80;99.90;;;;;;5103976;28;20402;-75
2023/01/03 13:11:49;;;;;;;67.45;30.70;;;5.80;99.90;;;;;;5106041;28;20404;-75
2023/01/03 13:14:23;;;;;;;69.47;30.98;;;5.80;99.90;;;;;;5093714;28;20389;-75
2023/01/03 13:17:13;;;;;;;65.72;30.45;;;5.90;99.90;;;;;;5076161;28;20963;-75
2023/01/03 13:19:39;;;;;;;68.88;30.33;;;5.90;99.90;;;;;;5089047;28;20775;-75
2023/01/03 13:22:20;;;;;;;61.05;28.92;;;6.00;99.90;;;;;;5087155;28;20485;-75
2023/01/03 13:24:50;;;;;;;64.00;28.40;;;6.00;99.90;;;;;;5069572;28;20410;-75
2023/01/03 13:27:21;;;;;;;59.72;28.83;;;6.00;99.90;;;;;;5086991;28;20958;-75
2023/01/03 13:29:49;;;;;;;59.23;28.03;;;6.00;99.90;;;;;;5089722;28;20974;-75
2023/01/03 13:32:24;;;;;;;59.45;26.55;;;6.10;99.90;;;;;;5087751;28;20441;-75
2023/01/03 13:34:52;;;;;;;53.85;26.02;;;6.10;99.90;;;;;;5088711;28;20414;-75
2023/01/03 13:37:21;;;;;;;55.17;27.05;;;6.10;99.90;;;;;;5087507;28;20444;-75
2023/01/03 13:39:51;;;;;;;52.43;26.10;;;6.10;99.90;;;;;;5085938;28;21565;-75
2023/01/03 13:42:22;;;;;;;55.67;27.30;;;6.20;99.90;;;;;;5086900;28;20475;-76
2023/01/03 13:44:49;;;;;;;51.63;25.50;;;6.20;99.90;;;;;;5087243;28;20453;-75
2023/01/03 13:47:29;;;;;;;56.17;25.67;;;6.20;99.90;;;;;;5069749;28;20417;-75
2023/01/03 13:49:55;;;;;;;53.78;25.05;;;6.20;99.90;;;;;;5083806;28;20455;-75
2023/01/03 13:52:54;;;;;;;54.45;25.30;;;6.20;99.90;;;;;;5082597;28;20535;-75
2023/01/03 13:55:37;;;;;;;52.70;25.65;;;6.20;99.90;;;;;;5086616;28;20442;-76
2023/01/03 13:58:23;;;;;;;49.17;24.27;;;6.20;99.90;;;;;;5075954;28;20430;-75
2023/01/03 14:00:49;;;;;;;50.78;23.75;;;6.30;99.90;;;;;;5086392;28;20426;-75
2023/01/03 14:03:25;;;;;;;46.13;23.67;;;6.30;99.90;;;;;;5086570;28;20402;-76
2023/01/03 14:06:24;;;;;;;47.85;23.80;;;6.30;99.90;;;;;;5086079;28;20651;-75